Time;durP1;ratioP1;P1;durP2;ratioP2;P2;SDS_P1;SDS_P2;PMS_P1;PMS_P2;Temp;Humidity;BMP_temperature;BMP_pressure;BME280_temperature;BME280_humidity;BME280_pressure;Samples;Min_cycle;Max_cycle;Signal;HPM_P1;HPM_P2
2022/01/04 00:02:21;;;;;;;8.98;7.32;;;;;;;-143.35;100.00;58682.94;5014381;28;20125;-49
2022/01/04 00:04:46;;;;;;;11.95;6.82;;;;;;;-143.35;100.00;58682.94;5013166;28;20472;-50
2022/01/04 00:07:12;;;;;;;10.77;7.25;;;;;;;-143.35;100.00;58682.94;5014266;28;20121;-48
2022/01/04 00:09:41;;;;;;;8.75;6.05;;;;;;;-143.35;100.00;58682.94;5014072;28;20057;-49
2022/01/04 00:14:52;;;;;;;10.63;6.65;;;;;;;-143.35;100.00;58682.94;5014307;28;20100;-50
2022/01/04 00:17:18;;;;;;;7.40;6.10;;;;;;;-143.35;100.00;58682.94;5014150;28;20042;-49
2022/01/04 00:19:43;;;;;;;8.25;6.25;;;;;;;-143.35;100.00;58682.94;5014087;28;20026;-49
2022/01/04 00:22:08;;;;;;;7.22;6.15;;;;;;;-143.35;100.00;58682.94;5014286;28;20037;-49
2022/01/04 00:24:35;;;;;;;7.95;5.95;;;;;;;-143.35;100.00;58682.94;5014147;28;20608;-48
2022/01/04 00:27:00;;;;;;;7.32;5.88;;;;;;;-143.35;100.00;58682.94;5014120;28;20026;-49
2022/01/04 00:29:28;;;;;;;6.63;5.82;;;;;;;-143.35;100.00;58682.94;5013924;28;20026;-52
2022/01/04 00:31:53;;;;;;;10.15;6.57;;;;;;;-143.35;100.00;58682.94;5014016;28;20036;-49
2022/01/04 00:34:18;;;;;;;7.80;5.72;;;;;;;-143.35;100.00;58682.94;5014058;28;20029;-50
2022/01/04 00:36:44;;;;;;;6.47;5.82;;;;;;;-143.35;100.00;58682.94;5012767;28;20104;-51
2022/01/04 00:39:09;;;;;;;7.97;6.80;;;;;;;-143.35;100.00;58682.94;5012685;28;20018;-48
2022/01/04 00:41:34;;;;;;;8.55;6.90;;;;;;;-143.35;100.00;58682.94;5013905;28;20041;-48
2022/01/04 00:44:00;;;;;;;7.07;6.40;;;;;;;-143.35;100.00;58682.94;5017564;28;20030;-49
2022/01/04 00:46:25;;;;;;;7.10;6.28;;;;;;;-143.35;100.00;58682.94;5017800;28;20385;-50
2022/01/04 00:49:09;;;;;;;7.88;6.15;;;;;;;-143.35;100.00;58682.94;5017631;28;20033;-48
2022/01/04 00:51:35;;;;;;;6.70;5.88;;;;;;;-143.35;100.00;58682.94;5017776;28;20018;-49
2022/01/04 00:54:01;;;;;;;9.93;5.75;;;;;;;-143.35;100.00;58682.94;5017753;28;20023;-51
2022/01/04 00:56:26;;;;;;;8.55;6.18;;;;;;;-143.35;100.00;58682.94;5017656;28;20381;-49
2022/01/04 00:58:51;;;;;;;8.10;5.88;;;;;;;-143.35;100.00;58682.94;5017513;28;20033;-48
2022/01/04 01:01:17;;;;;;;6.18;5.57;;;;;;;-143.35;100.00;58682.94;5017638;28;20022;-48
2022/01/04 01:03:42;;;;;;;7.82;5.38;;;;;;;-143.35;100.00;58682.94;5017307;28;20037;-49
2022/01/04 01:06:09;;;;;;;9.32;5.22;;;;;;;-143.35;100.00;58682.94;5017475;28;20026;-48
2022/01/04 01:08:35;;;;;;;5.50;4.97;;;;;;;-143.35;100.00;58682.94;5016124;28;20541;-48
2022/01/04 01:11:00;;;;;;;8.07;5.30;;;;;;;-143.35;100.00;58682.94;5017315;28;20117;-48
2022/01/04 01:13:25;;;;;;;7.10;5.13;;;;;;;-143.35;100.00;58682.94;5017395;28;20036;-48
2022/01/04 01:15:51;;;;;;;8.13;4.63;;;;;;;-143.35;100.00;58682.94;5017098;28;20524;-48
2022/01/04 01:18:17;;;;;;;6.53;4.85;;;;;;;-143.35;100.00;58682.94;5017262;28;20018;-50
2022/01/04 01:20:46;;;;;;;6.03;4.75;;;;;;;-143.35;100.00;58682.94;5017304;28;20026;-49
2022/01/04 01:23:14;;;;;;;5.78;4.63;;;;;;;-143.35;100.00;58682.94;5016972;28;20040;-50
2022/01/04 01:25:39;;;;;;;10.80;5.40;;;;;;;-143.35;100.00;58682.94;5017080;28;20481;-49
2022/01/04 01:28:05;;;;;;;10.20;4.95;;;;;;;-143.35;100.00;58682.94;5017053;28;20057;-48
2022/01/04 01:30:34;;;;;;;5.90;4.45;;;;;;;-143.35;100.00;58682.94;5016893;28;20033;-48
2022/01/04 01:32:59;;;;;;;5.72;4.85;;;;;;;-143.35;100.00;58682.94;5017272;28;20030;-49
2022/01/04 01:35:25;;;;;;;6.93;5.03;;;;;;;-143.35;100.00;58682.94;5017400;28;20122;-47
2022/01/04 01:37:50;;;;;;;9.02;4.90;;;;;;;-143.35;100.00;58682.94;5016811;28;20037;-48
2022/01/04 01:40:16;;;;;;;8.40;5.03;;;;;;;-143.35;100.00;58682.94;5015570;28;20021;-48
2022/01/04 01:42:41;;;;;;;10.27;5.00;;;;;;;-143.35;100.00;58682.94;5015480;28;20033;-48
2022/01/04 01:45:09;;;;;;;5.95;4.88;;;;;;;-143.35;100.00;58682.94;5016710;28;20026;-48
2022/01/04 01:47:37;;;;;;;7.15;4.70;;;;;;;-143.35;100.00;58682.94;5016742;28;20026;-48
2022/01/04 01:50:03;;;;;;;7.32;4.53;;;;;;;-143.35;100.00;58682.94;5016547;28;20033;-48
2022/01/04 01:52:28;;;;;;;10.57;4.97;;;;;;;-143.35;100.00;58682.94;5016607;28;20030;-49
2022/01/04 01:54:53;;;;;;;5.18;4.18;;;;;;;-143.35;100.00;58682.94;5016371;28;20026;-49
2022/01/04 01:57:19;;;;;;;6.25;4.20;;;;;;;-143.35;100.00;58682.94;5016628;28;20104;-49
2022/01/04 01:59:44;;;;;;;6.25;4.22;;;;;;;-143.35;100.00;58682.94;5016627;28;20044;-47
2022/01/04 02:02:10;;;;;;;5.43;4.07;;;;;;;-143.35;100.00;58682.94;5016583;28;20515;-49
2022/01/04 02:04:35;;;;;;;6.13;3.33;;;;;;;-143.35;100.00;58682.94;5016400;28;20028;-48
2022/01/04 02:07:01;;;;;;;7.50;3.80;;;;;;;-143.35;100.00;58682.94;5016288;28;20017;-48
2022/01/04 02:09:26;;;;;;;4.22;3.25;;;;;;;-143.35;100.00;58682.94;5016309;28;20083;-49
2022/01/04 02:11:54;;;;;;;3.83;3.42;;;;;;;-143.35;100.00;58682.94;5016243;28;20408;-48
2022/01/04 02:14:20;;;;;;;3.53;2.97;;;;;;;-143.35;100.00;58682.94;5015944;28;20428;-48
2022/01/04 02:16:45;;;;;;;3.67;2.88;;;;;;;-143.35;100.00;58682.94;5016026;28;20029;-48
2022/01/04 02:19:10;;;;;;;4.82;2.90;;;;;;;-143.35;100.00;58682.94;5016138;28;20042;-48
2022/01/04 02:21:36;;;;;;;4.00;2.67;;;;;;;-143.35;100.00;58682.94;5016050;28;20354;-49
2022/01/04 02:24:03;;;;;;;5.30;2.92;;;;;;;-143.35;100.00;58682.94;5015983;28;20049;-49
2022/01/04 02:26:30;;;;;;;5.18;3.28;;;;;;;-143.35;100.00;58682.94;5015910;28;20037;-48
2022/01/04 02:28:56;;;;;;;7.25;3.10;;;;;;;-143.35;100.00;58682.94;5015774;28;20032;-48
2022/01/04 02:31:21;;;;;;;4.90;3.00;;;;;;;-143.35;100.00;58682.94;5015776;28;20034;-48
2022/01/04 02:33:47;;;;;;;5.13;3.30;;;;;;;-143.35;100.00;58682.94;5015814;28;20466;-48
2022/01/04 02:36:12;;;;;;;3.35;2.72;;;;;;;-143.35;100.00;58682.94;5015799;28;20084;-48
2022/01/04 02:38:37;;;;;;;5.32;3.08;;;;;;;-143.35;100.00;58682.94;5015561;28;20034;-50
2022/01/04 02:41:03;;;;;;;5.25;3.13;;;;;;;-143.35;100.00;58682.94;5014291;28;20014;-48
2022/01/04 02:43:29;;;;;;;4.35;3.22;;;;;;;-143.35;100.00;58682.94;5009834;28;20037;-48
2022/01/04 02:45:54;;;;;;;6.20;3.10;;;;;;;-143.35;100.00;58682.94;5014520;28;20025;-49
2022/01/04 02:48:20;;;;;;;6.32;4.18;;;;;;;-143.35;100.00;58682.94;5003278;28;20030;-50
2022/01/04 02:50:45;;;;;;;6.90;3.67;;;;;;;-143.35;100.00;58682.94;5013572;28;20072;-48
2022/01/04 02:53:11;;;;;;;7.65;3.60;;;;;;;-143.35;100.00;58682.94;5014510;28;20079;-48
2022/01/04 02:55:36;;;;;;;9.45;4.25;;;;;;;-143.35;100.00;58682.94;5015317;28;20030;-50
2022/01/04 02:58:02;;;;;;;5.13;4.35;;;;;;;-143.35;100.00;58682.94;5013918;28;20115;-50
2022/01/04 03:00:28;;;;;;;7.07;4.63;;;;;;;-143.35;100.00;58682.94;5015409;28;20032;-48
2022/01/04 03:02:54;;;;;;;6.07;4.70;;;;;;;-143.35;100.00;58682.94;5015165;28;20033;-48
2022/01/04 03:05:19;;;;;;;6.50;4.43;;;;;;;-143.35;100.00;58682.94;5014545;28;20036;-48
2022/01/04 03:07:45;;;;;;;9.30;4.75;;;;;;;-143.35;100.00;58682.94;5013061;28;20057;-48
2022/01/04 03:10:10;;;;;;;8.43;5.13;;;;;;;-143.35;100.00;58682.94;4995319;28;20031;-48
2022/01/04 03:12:39;;;;;;;5.68;4.45;;;;;;;-143.35;100.00;58682.94;4995468;28;20401;-48
2022/01/04 03:15:05;;;;;;;6.72;4.85;;;;;;;-143.35;100.00;58682.94;5013387;23;20104;-50
2022/01/04 03:17:30;;;;;;;6.45;5.07;;;;;;;-143.35;100.00;58682.94;5014956;28;20033;-51
2022/01/04 03:19:56;;;;;;;8.13;4.90;;;;;;;-143.35;100.00;58682.94;5015023;28;20028;-49
2022/01/04 03:22:21;;;;;;;7.32;4.57;;;;;;;-143.35;100.00;58682.94;5015004;28;20032;-48
2022/01/04 03:24:47;;;;;;;6.97;5.07;;;;;;;-143.35;100.00;58682.94;4996093;28;20030;-48
2022/01/04 03:27:13;;;;;;;6.13;4.55;;;;;;;-143.35;100.00;58682.94;4995173;28;20026;-49
2022/01/04 03:29:38;;;;;;;6.32;4.60;;;;;;;-143.35;100.00;58682.94;4997135;28;20049;-48
2022/01/04 03:32:04;;;;;;;8.20;4.75;;;;;;;-143.35;100.00;58682.94;4995122;28;20022;-48
2022/01/04 03:34:30;;;;;;;5.57;4.32;;;;;;;-143.35;100.00;58682.94;4995864;28;20081;-48
2022/01/04 03:36:55;;;;;;;8.02;4.78;;;;;;;-143.35;100.00;58682.94;4995093;28;20026;-51
2022/01/04 03:39:20;;;;;;;9.18;4.95;;;;;;;-143.35;100.00;58682.94;4994938;28;20488;-49
2022/01/04 03:41:46;;;;;;;9.02;5.00;;;;;;;-143.35;100.00;58682.94;4995100;28;20084;-48
2022/01/04 03:44:18;;;;;;;6.18;4.78;;;;;;;-143.35;100.00;58682.94;4994833;28;20037;-48
2022/01/04 03:46:44;;;;;;;6.28;5.63;;;;;;;-143.35;100.00;58682.94;4995004;28;20026;-49
2022/01/04 03:49:09;;;;;;;8.95;5.30;;;;;;;-143.35;100.00;58682.94;4994612;28;20030;-48
2022/01/04 03:51:35;;;;;;;9.48;5.43;;;;;;;-143.35;100.00;58682.94;4994867;28;20037;-48
2022/01/04 03:54:02;;;;;;;9.23;6.22;;;;;;;-143.35;100.00;58682.94;4996048;28;20117;-48
2022/01/04 03:56:28;;;;;;;8.85;6.25;;;;;;;-143.35;100.00;58682.94;4994761;28;20083;-51
2022/01/04 03:58:53;;;;;;;7.55;6.47;;;;;;;-143.35;100.00;58682.94;4994648;28;20097;-49
2022/01/04 04:01:18;;;;;;;8.85;6.57;;;;;;;-143.35;100.00;58682.94;4994824;28;20033;-51
2022/01/04 04:03:44;;;;;;;10.52;6.72;;;;;;;-143.35;100.00;58682.94;4994838;28;20533;-50
2022/01/04 04:06:09;;;;;;;8.90;7.18;;;;;;;-143.35;100.00;58682.94;5008679;28;20034;-49
2022/01/04 04:08:35;;;;;;;13.60;7.43;;;;;;;-143.35;100.00;58682.94;5014227;28;20026;-50
2022/01/04 04:11:00;;;;;;;14.40;7.13;;;;;;;-143.35;100.00;58682.94;4997508;28;20022;-49
2022/01/04 04:13:25;;;;;;;14.50;8.05;;;;;;;-143.35;100.00;58682.94;4994592;28;20042;-51
2022/01/04 04:15:51;;;;;;;11.77;7.78;;;;;;;-143.35;100.00;58682.94;4994348;28;20057;-51
2022/01/04 04:18:17;;;;;;;10.25;7.57;;;;;;;-143.35;100.00;58682.94;4993692;28;20081;-51
2022/01/04 04:20:42;;;;;;;11.50;8.10;;;;;;;-143.35;100.00;58682.94;4994593;28;20026;-51
2022/01/04 04:23:08;;;;;;;10.68;8.35;;;;;;;-143.35;100.00;58682.94;4994515;28;20026;-48
2022/01/04 04:25:34;;;;;;;11.75;8.85;;;;;;;-143.35;100.00;58682.94;4994940;28;20057;-48
2022/01/04 04:27:59;;;;;;;10.68;8.45;;;;;;;-143.35;100.00;58682.94;5009509;28;20120;-48
2022/01/04 04:30:25;;;;;;;16.73;8.80;;;;;;;-143.35;100.00;58682.94;5011156;28;20061;-48
2022/01/04 04:32:51;;;;;;;10.98;8.15;;;;;;;-143.35;100.00;58682.94;4994448;28;20097;-48
2022/01/04 04:35:17;;;;;;;12.93;8.48;;;;;;;-143.35;100.00;58682.94;4994188;28;20030;-48
2022/01/04 04:37:42;;;;;;;13.35;8.90;;;;;;;-143.35;100.00;58682.94;4994257;28;20385;-48
2022/01/04 04:40:09;;;;;;;15.20;9.02;;;;;;;-143.35;100.00;58682.94;4994554;28;20035;-48
2022/01/04 04:42:35;;;;;;;11.93;9.15;;;;;;;-143.35;100.00;58682.94;5013562;28;20511;-48
2022/01/04 04:45:01;;;;;;;18.60;9.23;;;;;;;-143.35;100.00;58682.94;5013921;28;20022;-48
2022/01/04 04:47:26;;;;;;;13.75;9.43;;;;;;;-143.35;100.00;58682.94;5001921;28;20035;-48
2022/01/04 04:49:55;;;;;;;13.48;9.07;;;;;;;-143.35;100.00;58682.94;4994258;28;20110;-49
2022/01/04 04:52:21;;;;;;;14.02;9.88;;;;;;;-143.35;100.00;58682.94;4995558;28;20117;-48
2022/01/04 04:54:47;;;;;;;15.35;10.23;;;;;;;-143.35;100.00;58682.94;5013905;28;20068;-48
2022/01/04 04:57:12;;;;;;;15.27;9.02;;;;;;;-143.35;100.00;58682.94;4994596;28;20085;-47
2022/01/04 04:59:37;;;;;;;16.40;9.55;;;;;;;-143.35;100.00;58682.94;4976824;28;20022;-47
2022/01/04 05:02:04;;;;;;;14.00;8.90;;;;;;;-143.35;100.00;58682.94;5005310;28;20026;-48
2022/01/04 05:04:29;;;;;;;14.73;9.73;;;;;;;-143.35;100.00;58682.94;5013802;28;20500;-48
2022/01/04 05:06:55;;;;;;;12.93;9.45;;;;;;;-143.35;100.00;58682.94;5013736;28;20030;-50
2022/01/04 05:09:20;;;;;;;13.10;8.90;;;;;;;-143.35;100.00;58682.94;4994783;28;20037;-48
2022/01/04 05:11:46;;;;;;;12.63;9.00;;;;;;;-143.35;100.00;58682.94;4994082;28;20050;-50
2022/01/04 05:14:12;;;;;;;12.45;8.23;;;;;;;-143.35;100.00;58682.94;4994675;28;20490;-49
2022/01/04 05:16:37;;;;;;;11.10;8.20;;;;;;;-143.35;100.00;58682.94;4994092;28;20436;-50
2022/01/04 05:19:02;;;;;;;13.98;7.93;;;;;;;-143.35;100.00;58682.94;4994737;28;20124;-48
2022/01/04 05:21:28;;;;;;;11.38;6.95;;;;;;;-143.35;100.00;58682.94;5013583;28;20497;-48
2022/01/04 05:23:54;;;;;;;9.15;6.63;;;;;;;-143.35;100.00;58682.94;5013541;28;20037;-50
2022/01/04 05:26:20;;;;;;;9.65;7.07;;;;;;;-143.35;100.00;58682.94;5013574;28;20493;-48
2022/01/04 05:28:45;;;;;;;7.90;6.75;;;;;;;-143.35;100.00;58682.94;5003750;28;20123;-50
2022/01/04 05:31:14;;;;;;;7.15;6.45;;;;;;;-143.35;100.00;58682.94;4997307;28;20026;-49
2022/01/04 05:33:40;;;;;;;9.10;6.85;;;;;;;-143.35;100.00;58682.94;4998341;28;20030;-51
2022/01/04 05:36:06;;;;;;;10.18;7.30;;;;;;;-143.35;100.00;58682.94;4997416;28;20470;-50
2022/01/04 05:38:34;;;;;;;8.82;6.82;;;;;;;-143.35;100.00;58682.94;5003736;28;20029;-50
2022/01/04 05:41:00;;;;;;;9.90;7.18;;;;;;;-143.35;100.00;58682.94;5016838;28;20465;-49
2022/01/04 05:43:25;;;;;;;9.32;7.07;;;;;;;-143.35;100.00;58682.94;5015173;28;20028;-48
2022/01/04 05:45:51;;;;;;;9.57;7.63;;;;;;;-143.35;100.00;58682.94;5016461;28;20485;-48
2022/01/04 05:48:20;;;;;;;14.18;7.32;;;;;;;-143.35;100.00;58682.94;5016630;28;20361;-51
2022/01/04 05:50:45;;;;;;;9.07;7.75;;;;;;;-143.35;100.00;58682.94;5014954;28;20037;-48
2022/01/04 05:53:11;;;;;;;10.93;7.70;;;;;;;-143.35;100.00;58682.94;5016598;28;20022;-48
2022/01/04 05:55:36;;;;;;;8.10;7.25;;;;;;;-143.35;100.00;58682.94;5002977;28;20102;-49
2022/01/04 05:58:02;;;;;;;6.20;5.43;;;;;;;-143.35;100.00;58682.94;4997045;28;20022;-51
2022/01/04 06:00:27;;;;;;;9.65;7.13;;;;;;;-143.35;100.00;58682.94;5000236;28;20018;-48
2022/01/04 06:02:53;;;;;;;13.38;7.40;;;;;;;-143.35;100.00;58682.94;5016384;28;20160;-48
2022/01/04 06:05:18;;;;;;;8.43;7.00;;;;;;;-143.35;100.00;58682.94;5016445;28;20022;-50
2022/01/04 06:07:44;;;;;;;7.90;6.18;;;;;;;-143.35;100.00;58682.94;5016472;28;20030;-50
2022/01/04 06:10:11;;;;;;;7.10;6.47;;;;;;;-143.35;100.00;58682.94;5016188;28;20105;-51
2022/01/04 06:15:07;;;;;;;8.38;6.95;;;;;;;-143.35;100.00;58682.94;5015116;28;20058;-51
2022/01/04 06:17:38;;;;;;;8.93;7.15;;;;;;;-143.35;100.00;58682.94;5015218;28;20030;-50
2022/01/04 06:20:09;;;;;;;10.65;7.63;;;;;;;-143.35;100.00;58682.94;5016259;28;20028;-49
2022/01/04 06:22:37;;;;;;;9.35;7.57;;;;;;;-143.35;100.00;58682.94;5001040;28;20034;-51
2022/01/04 06:25:04;;;;;;;14.38;8.20;;;;;;;-143.35;100.00;58682.94;4996839;28;20027;-48
2022/01/04 06:27:30;;;;;;;10.27;8.10;;;;;;;-143.35;100.00;58682.94;4996397;28;20361;-48
2022/01/04 06:29:57;;;;;;;9.75;7.78;;;;;;;-143.35;100.00;58682.94;4996122;28;20030;-48
2022/01/04 06:32:23;;;;;;;11.20;8.50;;;;;;;-143.35;100.00;58682.94;4996200;28;20417;-48
2022/01/04 06:34:49;;;;;;;12.45;9.07;;;;;;;-143.35;100.00;58682.94;4996248;28;20018;-47
2022/01/04 06:37:15;;;;;;;10.73;8.90;;;;;;;-143.35;100.00;58682.94;5012179;28;20029;-48
2022/01/04 06:39:40;;;;;;;11.35;9.15;;;;;;;-143.35;100.00;58682.94;5014946;28;20021;-49
2022/01/04 06:42:06;;;;;;;10.40;9.25;;;;;;;-143.35;100.00;58682.94;5013827;28;20540;-48
2022/01/04 06:44:32;;;;;;;10.23;8.20;;;;;;;-143.35;100.00;58682.94;5014416;28;20133;-48
2022/01/04 06:46:57;;;;;;;12.02;8.77;;;;;;;-143.35;100.00;58682.94;5015629;28;20033;-48
2022/01/04 06:49:23;;;;;;;11.98;7.93;;;;;;;-143.35;100.00;58682.94;5015490;28;20026;-48
2022/01/04 06:51:49;;;;;;;9.85;8.85;;;;;;;-143.35;100.00;58682.94;5014262;28;20040;-49
2022/01/04 06:54:16;;;;;;;16.23;8.48;;;;;;;-143.35;100.00;58682.94;5015543;28;20022;-49
2022/01/04 06:56:42;;;;;;;11.27;8.77;;;;;;;-143.35;100.00;58682.94;5005375;28;20030;-48
2022/01/04 06:59:08;;;;;;;10.68;8.88;;;;;;;-143.35;100.00;58682.94;4995884;28;20439;-48
2022/01/04 07:01:35;;;;;;;12.73;9.65;;;;;;;-143.35;100.00;58682.94;4996646;28;20037;-49
2022/01/04 07:04:01;;;;;;;12.68;8.35;;;;;;;-143.35;100.00;58682.94;4995608;28;20026;-48
2022/01/04 07:06:26;;;;;;;11.30;8.48;;;;;;;-143.35;100.00;58682.94;4995611;28;20023;-48
2022/01/04 07:08:52;;;;;;;9.88;8.57;;;;;;;-143.35;100.00;58682.94;4995318;28;20033;-48
2022/01/04 07:11:17;;;;;;;15.73;10.38;;;;;;;-143.35;100.00;58682.94;4995461;28;20026;-48
2022/01/04 07:13:43;;;;;;;9.55;8.48;;;;;;;-143.35;100.00;58682.94;4995485;28;20049;-49
2022/01/04 07:16:09;;;;;;;12.18;9.63;;;;;;;-143.35;100.00;58682.94;4995368;28;20062;-51
2022/01/04 07:18:34;;;;;;;11.43;9.07;;;;;;;-143.35;100.00;58682.94;5001266;28;20112;-49
2022/01/04 07:21:00;;;;;;;13.30;9.02;;;;;;;-143.35;100.00;58682.94;5015021;28;20028;-50
2022/01/04 07:23:25;;;;;;;14.32;9.63;;;;;;;-143.35;100.00;58682.94;5015049;28;20025;-48
2022/01/04 07:25:51;;;;;;;14.02;9.80;;;;;;;-143.35;100.00;58682.94;4996409;28;20046;-48
2022/01/04 07:28:17;;;;;;;16.58;10.73;;;;;;;-143.35;100.00;58682.94;4995142;28;20031;-49
2022/01/04 07:30:43;;;;;;;13.05;10.05;;;;;;;-143.35;100.00;58682.94;4995082;28;20474;-48
2022/01/04 07:33:09;;;;;;;13.00;10.10;;;;;;;-143.35;100.00;58682.94;4996526;28;20037;-48
2022/01/04 07:35:34;;;;;;;15.27;10.60;;;;;;;-143.35;100.00;58682.94;4995019;28;20034;-48
2022/01/04 07:37:59;;;;;;;14.30;10.57;;;;;;;-143.35;100.00;58682.94;4993809;28;20377;-51
2022/01/04 07:40:25;;;;;;;17.88;10.82;;;;;;;-143.35;100.00;58682.94;4996141;28;20384;-49
2022/01/04 07:42:50;;;;;;;9.48;6.85;;;;;;;-143.35;100.00;58682.94;4995078;28;20434;-49
2022/01/04 07:45:16;;;;;;;12.23;7.95;;;;;;;-143.35;100.00;58682.94;4994866;28;20034;-49
2022/01/04 07:47:42;;;;;;;9.07;7.20;;;;;;;-143.35;100.00;58682.94;4993889;28;20026;-47
2022/01/04 07:50:09;;;;;;;10.93;7.35;;;;;;;-143.35;100.00;58682.94;4994937;28;20041;-48
2022/01/04 07:52:34;;;;;;;13.13;8.60;;;;;;;-143.35;100.00;58682.94;4993455;28;20049;-50
2022/01/04 07:55:01;;;;;;;10.88;8.43;;;;;;;-143.35;100.00;58682.94;4995099;28;20065;-48
2022/01/04 07:57:26;;;;;;;13.57;9.20;;;;;;;-143.35;100.00;58682.94;4994838;28;20390;-51
2022/01/04 07:59:51;;;;;;;16.63;10.10;;;;;;;-143.35;100.00;58682.94;5001187;28;20028;-48
2022/01/04 08:02:17;;;;;;;12.32;10.23;;;;;;;-143.35;100.00;58682.94;4998651;28;20038;-50
2022/01/04 08:04:42;;;;;;;10.88;8.73;;;;;;;-143.35;100.00;58682.94;4994748;28;20029;-48
2022/01/04 08:07:08;;;;;;;13.10;8.77;;;;;;;-143.35;100.00;58682.94;4995775;28;20405;-47
2022/01/04 08:09:33;;;;;;;12.40;6.63;;;;;;;-143.35;100.00;58682.94;4994615;28;20026;-48
2022/01/04 08:11:58;;;;;;;13.88;12.48;;;;;;;-143.35;100.00;58682.94;4994718;28;20382;-48
2022/01/04 08:14:24;;;;;;;15.95;13.00;;;;;;;-143.35;100.00;58682.94;4994635;28;20046;-48
2022/01/04 08:16:49;;;;;;;15.65;12.88;;;;;;;-143.35;100.00;58682.94;4994532;28;20060;-48
2022/01/04 08:19:15;;;;;;;18.10;13.55;;;;;;;-143.35;100.00;58682.94;4994677;28;20474;-48
2022/01/04 08:21:40;;;;;;;22.17;14.68;;;;;;;-143.35;100.00;58682.94;4994617;28;20034;-49
2022/01/04 08:24:06;;;;;;;18.67;13.38;;;;;;;-143.35;100.00;58682.94;4994518;28;20065;-51
2022/01/04 08:26:31;;;;;;;17.77;14.25;;;;;;;-143.35;100.00;58682.94;4994341;28;20453;-50
2022/01/04 08:28:57;;;;;;;22.27;12.88;;;;;;;-143.35;100.00;58682.94;4994310;28;20105;-51
2022/01/04 08:31:23;;;;;;;21.30;14.40;;;;;;;-143.35;100.00;58682.94;4994345;28;20022;-51
2022/01/04 08:33:48;;;;;;;18.13;13.50;;;;;;;-143.35;100.00;58682.94;4994374;28;20026;-48
2022/01/04 08:36:13;;;;;;;16.17;13.13;;;;;;;-143.35;100.00;58682.94;5002265;28;20030;-48
2022/01/04 08:38:43;;;;;;;15.73;12.52;;;;;;;-143.35;100.00;58682.94;5013978;28;20072;-48
2022/01/04 08:41:09;;;;;;;15.50;12.95;;;;;;;-143.35;100.00;58682.94;5013934;28;20511;-48
2022/01/04 08:43:34;;;;;;;16.02;12.65;;;;;;;-143.35;100.00;58682.94;5014057;28;20022;-51
2022/01/04 08:45:59;;;;;;;16.10;13.18;;;;;;;-143.35;100.00;58682.94;5013949;28;20448;-50
2022/01/04 08:48:25;;;;;;;17.40;13.13;;;;;;;-143.35;100.00;58682.94;5013848;28;20101;-49
2022/01/04 08:50:50;;;;;;;20.02;13.68;;;;;;;-143.35;100.00;58682.94;5013199;28;20022;-48
2022/01/04 08:53:16;;;;;;;14.05;12.50;;;;;;;-143.35;100.00;58682.94;5013963;28;20087;-51
2022/01/04 08:55:41;;;;;;;15.30;12.00;;;;;;;-143.35;100.00;58682.94;4996924;28;20061;-48
2022/01/04 08:58:08;;;;;;;20.13;13.30;;;;;;;-143.35;100.00;58682.94;4994133;28;20025;-49
2022/01/04 09:00:34;;;;;;;17.15;12.13;;;;;;;-143.35;100.00;58682.94;5005085;28;20108;-47
2022/01/04 09:03:00;;;;;;;18.70;13.05;;;;;;;-143.35;100.00;58682.94;5014147;28;20109;-51
2022/01/04 09:05:26;;;;;;;17.00;12.90;;;;;;;-143.35;100.00;58682.94;5017611;28;20484;-49
2022/01/04 09:07:52;;;;;;;19.25;13.75;;;;;;;-143.35;100.00;58682.94;5013132;28;20023;-47
2022/01/04 09:10:17;;;;;;;34.67;14.38;;;;;;;-143.35;100.00;58682.94;4997683;28;20033;-51
2022/01/04 09:20:38;;;;;;;24.02;17.05;;;;;;;-143.35;100.00;58682.94;4998048;28;20057;-48
2022/01/04 09:23:04;;;;;;;24.38;17.30;;;;;;;-143.35;100.00;58682.94;4997664;28;20030;-48
2022/01/04 09:25:29;;;;;;;25.77;17.10;;;;;;;-143.35;100.00;58682.94;5008116;28;20479;-48
2022/01/04 09:27:56;;;;;;;25.33;16.48;;;;;;;-143.35;100.00;58682.94;5017129;28;20029;-48
2022/01/04 09:30:23;;;;;;;25.10;16.60;;;;;;;-143.35;100.00;58682.94;5017076;28;20076;-48
2022/01/04 09:32:48;;;;;;;17.73;15.93;;;;;;;-143.35;100.00;58682.94;5015294;28;20022;-48
2022/01/04 09:35:14;;;;;;;21.83;15.43;;;;;;;-143.35;100.00;58682.94;4997468;28;20042;-48
2022/01/04 09:37:39;;;;;;;21.58;14.95;;;;;;;-143.35;100.00;58682.94;4997363;28;20105;-50
2022/01/04 09:40:06;;;;;;;17.67;14.20;;;;;;;-143.35;100.00;58682.94;4997374;28;20029;-48
2022/01/04 09:42:31;;;;;;;16.52;12.95;;;;;;;-143.35;100.00;58682.94;4997138;28;20022;-47
2022/01/04 09:44:57;;;;;;;21.58;12.13;;;;;;;-143.35;100.00;58682.94;4995946;28;20033;-48
2022/01/04 09:47:24;;;;;;;20.23;12.25;;;;;;;-143.35;100.00;58682.94;4997176;28;20102;-48
2022/01/04 09:49:49;;;;;;;16.75;11.05;;;;;;;-143.35;100.00;58682.94;4997189;28;20038;-50
2022/01/04 09:52:19;;;;;;;15.75;11.38;;;;;;;-143.35;100.00;58682.94;4997088;28;20489;-48
2022/01/04 09:54:46;;;;;;;12.85;10.93;;;;;;;-143.35;100.00;58682.94;4995902;28;20049;-49
2022/01/04 09:57:15;;;;;;;16.40;11.52;;;;;;;-143.35;100.00;58682.94;4996983;28;20026;-48
2022/01/04 09:59:40;;;;;;;17.90;12.15;;;;;;;-143.35;100.00;58682.94;4996940;28;20025;-48
2022/01/04 10:02:15;;;;;;;17.00;11.48;;;;;;;-143.35;100.00;58682.94;4996972;28;20026;-49
2022/01/04 10:04:40;;;;;;;21.20;10.02;;;;;;;-143.35;100.00;58682.94;4995657;28;20465;-48
2022/01/04 10:07:08;;;;;;;12.23;10.10;;;;;;;-143.35;100.00;58682.94;4996737;28;20018;-48
2022/01/04 10:09:37;;;;;;;15.25;10.52;;;;;;;-143.35;100.00;58682.94;4996763;28;20022;-50
2022/01/04 10:12:05;;;;;;;12.95;9.35;;;;;;;-143.35;100.00;58682.94;4996749;28;20030;-48
2022/01/04 10:14:39;;;;;;;19.08;10.27;;;;;;;-143.35;100.00;58682.94;4996323;28;20113;-48
2022/01/04 10:17:08;;;;;;;12.25;9.35;;;;;;;-143.35;100.00;58682.94;4996667;28;20038;-50
2022/01/04 10:19:42;;;;;;;15.93;9.15;;;;;;;-143.35;100.00;58682.94;4996474;28;20026;-48
2022/01/04 10:22:30;;;;;;;11.73;8.60;;;;;;;-143.35;100.00;58682.94;4996552;28;20027;-48
2022/01/04 10:25:05;;;;;;;12.00;8.27;;;;;;;-143.35;100.00;58682.94;5015306;28;20038;-48
2022/01/04 10:27:33;;;;;;;10.82;8.73;;;;;;;-143.35;100.00;58682.94;5015851;28;20029;-50
2022/01/04 10:30:31;;;;;;;13.73;7.70;;;;;;;-143.35;100.00;58682.94;5015795;28;20084;-48
2022/01/04 10:32:57;;;;;;;10.20;8.68;;;;;;;-143.35;100.00;58682.94;5012994;28;20477;-48
2022/01/04 10:35:49;;;;;;;15.98;9.23;;;;;;;-143.35;100.00;58682.94;5015839;28;20181;-50
2022/01/04 10:38:39;;;;;;;12.95;9.77;;;;;;;-143.35;100.00;58682.94;5015679;28;20079;-48
2022/01/04 10:41:10;;;;;;;12.30;7.38;;;;;;;-143.35;100.00;58682.94;5015817;28;20381;-49
2022/01/04 10:43:43;;;;;;;8.07;6.93;;;;;;;-143.35;100.00;58682.94;4999694;28;20034;-49
2022/01/04 10:46:09;;;;;;;10.00;7.15;;;;;;;-143.35;100.00;58682.94;4996056;28;20628;-50
2022/01/04 10:48:43;;;;;;;13.32;8.00;;;;;;;-143.35;100.00;58682.94;5000441;28;20038;-49
2022/01/04 10:51:13;;;;;;;12.32;6.60;;;;;;;-143.35;100.00;58682.94;5015575;28;20034;-51
2022/01/04 10:53:45;;;;;;;10.77;7.25;;;;;;;-143.35;100.00;58682.94;5015624;28;20026;-50
2022/01/04 10:56:13;;;;;;;17.30;7.65;;;;;;;-143.35;100.00;58682.94;5015543;28;20033;-50
2022/01/04 10:58:41;;;;;;;10.85;6.25;;;;;;;-143.35;100.00;58682.94;5015473;28;20026;-51
2022/01/04 11:01:11;;;;;;;8.60;5.97;;;;;;;-143.35;100.00;58682.94;5015419;28;20033;-51
2022/01/04 11:03:41;;;;;;;9.73;5.30;;;;;;;-143.35;100.00;58682.94;5015008;28;20040;-49
2022/01/04 11:06:11;;;;;;;7.82;4.60;;;;;;;-143.35;100.00;58682.94;5015316;28;20034;-52
2022/01/04 11:08:37;;;;;;;6.65;3.90;;;;;;;-143.35;100.00;58682.94;5015221;28;20056;-49
2022/01/04 11:11:03;;;;;;;5.32;3.53;;;;;;;-143.35;100.00;58682.94;5013775;28;20030;-49
2022/01/04 11:13:29;;;;;;;9.82;3.45;;;;;;;-143.35;100.00;58682.94;5015927;28;20116;-48
2022/01/04 11:15:55;;;;;;;9.18;3.60;;;;;;;-143.35;100.00;58682.94;5015098;28;20049;-49